createdAt,value
2019-02-22T00:00:28.481Z,99711.45
2019-02-22T00:02:57.917Z,99711.06
2019-02-22T00:05:25.939Z,99713.91
2019-02-22T00:07:54.126Z,99714.26
2019-02-22T00:10:22.432Z,99712.59
2019-02-22T00:12:50.442Z,99714.26
2019-02-22T00:15:18.524Z,99717.13
2019-02-22T00:17:46.534Z,99713.23
2019-02-22T00:20:14.771Z,99713.39
2019-02-22T00:22:43.001Z,99721.12
2019-02-22T00:25:11.014Z,99722.70
2019-02-22T00:27:39.105Z,99720.64
2019-02-22T00:30:07.490Z,99724.05
2019-02-22T00:32:35.615Z,99719.22
2019-02-22T00:35:03.897Z,99725.50
2019-02-22T00:37:32.232Z,99719.06
2019-02-22T00:40:00.676Z,99719.76
2019-02-22T00:42:28.666Z,99714.47
2019-02-22T00:44:56.857Z,99721.86
2019-02-22T00:47:24.859Z,99724.53
2019-02-22T00:49:52.961Z,99722.09
2019-02-22T00:52:21.015Z,99730.66
2019-02-22T00:54:50.133Z,99727.17
2019-02-22T00:57:18.198Z,99734.25
2019-02-22T00:59:46.527Z,99735.81
2019-02-22T01:02:14.650Z,99735.38
2019-02-22T01:04:42.670Z,99735.59
2019-02-22T01:07:10.930Z,99726.44
2019-02-22T01:09:39.003Z,99727.88
2019-02-22T01:12:07.143Z,99726.59
2019-02-22T01:14:35.188Z,99727.41
2019-02-22T01:17:03.271Z,99728.59
2019-02-22T01:19:33.127Z,99730.50
2019-02-22T01:22:01.418Z,99723.05
2019-02-22T01:24:30.471Z,99727.63
2019-02-22T01:26:58.930Z,99732.02
2019-02-22T01:29:26.903Z,99735.11
2019-02-22T01:31:55.121Z,99724.51
2019-02-22T01:34:23.252Z,99720.86
2019-02-22T01:36:51.490Z,99710.87
2019-02-22T01:39:19.649Z,99707.37
2019-02-22T01:41:47.738Z,99709.84
2019-02-22T01:44:21.743Z,99714.74
2019-02-22T01:46:49.746Z,99716.64
2019-02-22T01:49:17.871Z,99708.23
2019-02-22T01:51:46.167Z,99720.87
2019-02-22T01:54:14.223Z,99714.91
2019-02-22T01:56:42.304Z,99722.31
2019-02-22T01:59:10.490Z,99729.28
2019-02-22T02:01:38.622Z,99727.15
2019-02-22T02:04:06.731Z,99723.89
2019-02-22T02:06:34.712Z,99719.19
2019-02-22T02:09:04.934Z,99728.05
2019-02-22T02:11:34.112Z,99728.05
2019-02-22T02:14:02.286Z,99737.46
2019-02-22T02:16:30.317Z,99738.30
2019-02-22T02:18:58.471Z,99742.87
2019-02-22T02:21:26.571Z,99735.61
2019-02-22T02:23:54.661Z,99733.10
2019-02-22T02:26:22.812Z,99731.95
2019-02-22T02:28:51.697Z,99737.78
2019-02-22T02:31:20.357Z,99737.78
2019-02-22T02:33:48.767Z,99738.30
2019-02-22T02:36:16.946Z,99742.48
2019-02-22T02:38:45.395Z,99748.61
2019-02-22T02:41:13.403Z,99744.23
2019-02-22T02:43:41.435Z,99747.84
2019-02-22T02:46:09.440Z,99752.48
2019-02-22T02:48:37.453Z,99751.66
2019-02-22T02:51:05.421Z,99751.66
2019-02-22T02:53:33.515Z,99758.56
2019-02-22T02:56:01.501Z,99760.20
2019-02-22T02:58:29.493Z,99755.36
2019-02-22T03:00:57.500Z,99760.52
2019-02-22T03:03:25.788Z,99763.39
2019-02-22T03:06:19.802Z,99766.89
2019-02-22T03:08:48.047Z,99765.40
2019-02-22T03:11:20.700Z,99770.08
2019-02-22T03:13:46.598Z,99773.70
2019-02-22T03:16:14.584Z,99772.88
2019-02-22T03:18:42.611Z,99771.67
2019-02-22T03:21:11.114Z,99774.19
2019-02-22T03:23:40.209Z,99777.73
2019-02-22T03:26:08.208Z,99777.88
2019-02-22T03:28:36.222Z,99779.69
2019-02-22T03:31:04.198Z,99781.31
2019-02-22T03:33:32.300Z,99787.15
2019-02-22T03:36:00.374Z,99790.70
2019-02-22T03:38:28.361Z,99791.60
2019-02-22T03:40:56.617Z,99785.63
2019-02-22T03:43:24.954Z,99790.84
2019-02-22T03:45:53.364Z,99786.09
2019-02-22T03:48:21.752Z,99786.89
2019-02-22T03:50:49.761Z,99789.39
2019-02-22T03:53:24.807Z,99795.39
2019-02-22T03:55:52.882Z,99793.95
2019-02-22T03:58:20.903Z,99799.25
2019-02-22T04:00:49.126Z,99796.88
2019-02-22T04:03:17.165Z,99792.88
2019-02-22T04:05:45.305Z,99805.90
2019-02-22T04:08:13.622Z,99807.27
2019-02-22T04:10:42.077Z,99804.46
2019-02-22T04:13:10.134Z,99803.23
2019-02-22T04:15:38.341Z,99808.08
2019-02-22T04:18:06.397Z,99809.22
2019-02-22T04:20:35.064Z,99811.70
2019-02-22T04:23:04.089Z,99813.93
2019-02-22T04:25:32.278Z,99820.14
2019-02-22T04:28:00.905Z,99824.09
2019-02-22T04:30:29.043Z,99815.83
2019-02-22T04:32:57.096Z,99826.32
2019-02-22T04:35:25.150Z,99829.79
2019-02-22T04:37:55.899Z,99835.92
2019-02-22T04:40:24.053Z,99836.45
2019-02-22T04:42:52.184Z,99835.33
2019-02-22T04:45:20.359Z,99838.30
2019-02-22T04:47:49.637Z,99840.89
2019-02-22T04:50:17.736Z,99848.78
2019-02-22T04:52:46.224Z,99856.30
2019-02-22T04:55:14.241Z,99857.47
2019-02-22T04:57:42.307Z,99847.94
2019-02-22T05:00:10.338Z,99851.81
2019-02-22T05:02:40.044Z,99855.27
2019-02-22T05:05:08.599Z,99859.38
2019-02-22T05:07:36.567Z,99863.37
2019-02-22T05:10:04.902Z,99862.34
2019-02-22T05:12:32.915Z,99860.37
2019-02-22T05:15:11.874Z,99862.99
2019-02-22T05:17:31.206Z,99853.48
2019-02-22T05:19:59.230Z,99853.61
2019-02-22T05:22:27.250Z,99850.14
2019-02-22T05:24:55.286Z,99847.64
2019-02-22T05:27:23.502Z,99859.27
2019-02-22T05:29:52.684Z,99856.10
2019-02-22T05:32:27.173Z,99855.39
2019-02-22T05:34:55.737Z,99858.94
2019-02-22T05:37:23.741Z,99863.11
2019-02-22T05:39:51.742Z,99859.38
2019-02-22T05:42:23.190Z,99873.21
2019-02-22T05:44:49.839Z,99873.39
2019-02-22T05:47:17.867Z,99872.23
2019-02-22T05:49:45.875Z,99880.34
2019-02-22T05:52:13.907Z,99884.09
2019-02-22T05:54:41.936Z,99882.18
2019-02-22T05:57:10.051Z,99880.40
2019-02-22T05:59:38.060Z,99878.30
2019-02-22T06:02:06.016Z,99878.48
2019-02-22T06:04:34.039Z,99893.07
2019-02-22T06:07:02.143Z,99894.25
2019-02-22T06:09:30.114Z,99892.70
2019-02-22T06:11:58.125Z,99883.58
2019-02-22T06:14:26.157Z,99883.81
2019-02-22T06:16:54.178Z,99889.74
2019-02-22T06:19:22.455Z,99900.78
2019-02-22T06:21:50.607Z,99898.61
2019-02-22T06:24:18.685Z,99909.02
2019-02-22T06:26:46.812Z,99917.00
2019-02-22T06:29:14.955Z,99921.80
2019-02-22T06:31:42.952Z,99925.70
2019-02-22T06:34:11.072Z,99931.44
2019-02-22T06:36:39.174Z,99933.69
2019-02-22T06:39:07.351Z,99937.92
2019-02-22T06:41:35.394Z,99940.22
2019-02-22T06:44:03.464Z,99943.83
2019-02-22T06:46:31.642Z,99950.41
2019-02-22T06:48:59.795Z,99945.49
2019-02-22T06:51:27.822Z,99949.42
2019-02-22T06:53:55.936Z,99951.28
2019-02-22T06:56:24.353Z,99945.73
2019-02-22T06:58:52.416Z,99948.81
2019-02-22T07:01:20.507Z,99954.27
2019-02-22T07:03:48.777Z,99950.81
2019-02-22T07:06:16.801Z,99951.41
2019-02-22T07:08:44.824Z,99949.30
2019-02-22T07:11:32.487Z,99959.64
2019-02-22T07:14:00.983Z,99962.09
2019-02-22T07:16:29.014Z,99960.31
2019-02-22T07:18:57.076Z,99959.01
2019-02-22T07:21:25.073Z,99959.73
2019-02-22T07:23:53.158Z,99967.45
2019-02-22T07:26:21.490Z,99967.00
2019-02-22T07:28:49.783Z,99965.13
2019-02-22T07:31:17.797Z,99965.27
2019-02-22T07:33:45.835Z,99972.97
2019-02-22T07:36:13.899Z,99970.70
2019-02-22T07:38:42.295Z,99976.29
2019-02-22T07:41:10.334Z,99975.84
2019-02-22T07:43:38.401Z,99982.76
2019-02-22T07:46:06.913Z,99986.64
2019-02-22T07:48:35.261Z,99983.18
2019-02-22T07:51:03.291Z,99982.16
2019-02-22T07:53:31.335Z,99992.06
2019-02-22T07:55:59.810Z,99999.72
2019-02-22T07:58:28.120Z,99998.92
2019-02-22T08:00:56.243Z,100005.47
2019-02-22T08:03:24.313Z,100017.86
2019-02-22T08:05:52.800Z,100011.95
2019-02-22T08:08:21.884Z,100012.34
2019-02-22T08:10:49.925Z,100011.20
2019-02-22T08:13:19.993Z,100006.71
2019-02-22T08:15:47.979Z,100008.91
2019-02-22T08:18:16.630Z,100008.57
2019-02-22T08:20:44.706Z,100009.23
2019-02-22T08:23:12.836Z,100007.86
2019-02-22T08:25:40.885Z,100009.16
2019-02-22T08:28:08.886Z,100018.11
2019-02-22T08:30:36.953Z,100020.42
2019-02-22T08:33:05.027Z,100026.14
2019-02-22T08:35:33.138Z,100023.17
2019-02-22T08:38:01.337Z,100016.92
2019-02-22T08:40:29.683Z,100025.64
2019-02-22T08:42:57.691Z,100025.39
2019-02-22T08:45:26.072Z,100024.72
2019-02-22T08:47:56.049Z,100027.42
2019-02-22T08:50:24.342Z,100032.53
2019-02-22T08:52:52.525Z,100044.57
2019-02-22T08:55:22.004Z,100039.73
2019-02-22T08:57:50.121Z,100035.01
2019-02-22T09:00:20.170Z,100033.39
2019-02-22T09:02:48.426Z,100039.91
2019-02-22T09:05:16.722Z,100038.18
2019-02-22T09:07:44.739Z,100034.45
2019-02-22T09:10:12.913Z,100035.95
2019-02-22T09:12:40.966Z,100034.96
2019-02-22T09:15:09.057Z,100042.39
2019-02-22T09:17:37.349Z,100050.66
2019-02-22T09:20:06.393Z,100047.47
2019-02-22T09:22:36.478Z,100045.25
2019-02-22T09:25:05.154Z,100051.41
2019-02-22T09:27:33.185Z,100051.43
2019-02-22T09:30:02.363Z,100053.56
2019-02-22T09:32:30.545Z,100054.29
2019-02-22T09:34:59.078Z,100058.00
2019-02-22T09:37:27.505Z,100061.96
2019-02-22T09:39:55.726Z,100067.66
2019-02-22T09:42:23.770Z,100065.62
2019-02-22T09:44:52.153Z,100063.36
2019-02-22T09:47:20.204Z,100059.78
2019-02-22T09:49:48.357Z,100056.77
2019-02-22T09:52:16.328Z,100057.70
2019-02-22T09:54:44.696Z,100060.61
2019-02-22T09:57:12.690Z,100060.97
2019-02-22T09:59:40.873Z,100061.13
2019-02-22T10:02:08.903Z,100073.14
2019-02-22T10:04:36.976Z,100069.98
2019-02-22T10:07:04.979Z,100068.08
2019-02-22T10:09:33.158Z,100073.34
2019-02-22T10:12:01.195Z,100075.14
2019-02-22T10:14:29.345Z,100077.17
2019-02-22T10:16:59.301Z,100084.94
2019-02-22T10:19:29.086Z,100084.89
2019-02-22T10:21:57.831Z,100080.89
2019-02-22T10:24:26.096Z,100083.25
2019-02-22T10:26:54.578Z,100079.80
2019-02-22T10:29:22.617Z,100084.19
2019-02-22T10:31:50.709Z,100092.20
2019-02-22T10:34:19.022Z,100093.11
2019-02-22T10:36:47.072Z,100093.50
2019-02-22T10:39:15.553Z,100096.07
2019-02-22T10:41:43.798Z,100100.95
2019-02-22T10:44:17.637Z,100105.63
2019-02-22T10:46:42.833Z,100106.06
2019-02-22T10:49:10.828Z,100109.77
2019-02-22T10:51:38.837Z,100106.73
2019-02-22T10:54:06.999Z,100093.55
2019-02-22T10:56:35.373Z,100090.09
2019-02-22T10:59:03.429Z,100093.44
2019-02-22T11:01:31.475Z,100093.44
2019-02-22T11:03:59.511Z,100097.22
2019-02-22T11:06:27.950Z,100095.93
2019-02-22T11:08:55.957Z,100091.49
2019-02-22T11:11:24.301Z,100092.30
2019-02-22T11:13:52.565Z,100096.63
2019-02-22T11:16:20.692Z,100095.79
2019-02-22T11:18:48.748Z,100090.48
2019-02-22T11:21:16.834Z,100093.91
2019-02-22T11:23:44.851Z,100090.95
2019-02-22T11:26:13.057Z,100095.81
2019-02-22T11:28:42.636Z,100097.47
2019-02-22T11:31:10.808Z,100092.02
2019-02-22T11:33:38.982Z,100094.45
2019-02-22T11:36:07.317Z,100093.62
2019-02-22T11:38:35.382Z,100097.59
2019-02-22T11:41:03.569Z,100092.15
2019-02-22T11:43:31.850Z,100090.09
2019-02-22T11:48:50.256Z,100082.50
2019-02-22T11:51:22.431Z,100094.64
2019-02-22T11:53:50.516Z,100100.84
2019-02-22T11:56:20.130Z,100094.63
2019-02-22T11:58:48.643Z,100106.31
2019-02-22T12:01:17.262Z,100105.02
2019-02-22T12:03:45.682Z,100104.08
2019-02-22T12:06:14.034Z,100107.39
2019-02-22T12:08:42.864Z,100105.73
2019-02-22T12:11:11.025Z,100100.00
2019-02-22T12:13:39.208Z,100102.31
2019-02-22T12:16:07.241Z,100107.39
2019-02-22T12:18:36.561Z,100109.83
2019-02-22T12:21:05.207Z,100105.66
2019-02-22T12:23:34.737Z,100111.20
2019-02-22T12:26:02.828Z,100109.52
2019-02-22T12:28:31.088Z,100116.94
2019-02-22T12:30:59.574Z,100125.23
2019-02-22T12:33:27.696Z,100119.73
2019-02-22T12:35:56.352Z,100127.34
2019-02-22T12:38:24.577Z,100130.63
2019-02-22T12:40:52.779Z,100132.98
2019-02-22T12:43:20.852Z,100135.42
2019-02-22T12:45:48.979Z,100135.75
2019-02-22T12:48:17.333Z,100139.34
2019-02-22T12:50:45.536Z,100136.77
2019-02-22T12:53:13.631Z,100142.03
2019-02-22T12:55:41.753Z,100141.76
2019-02-22T12:58:09.925Z,100151.00
2019-02-22T13:00:38.073Z,100149.21
2019-02-22T13:03:07.009Z,100151.55
2019-02-22T13:05:35.858Z,100151.16
2019-02-22T13:08:05.896Z,100150.42
2019-02-22T13:10:34.319Z,100146.38
2019-02-22T13:13:02.731Z,100140.88
2019-02-22T13:15:31.180Z,100145.10
2019-02-22T13:17:59.423Z,100147.41
2019-02-22T13:20:27.851Z,100145.65
2019-02-22T13:22:55.917Z,100148.41
2019-02-22T13:25:26.958Z,100150.11
2019-02-22T13:27:55.550Z,100150.71
2019-02-22T13:30:23.909Z,100149.31
2019-02-22T13:32:52.388Z,100151.69
2019-02-22T13:35:20.782Z,100146.33
2019-02-22T13:37:49.096Z,100147.27
2019-02-22T13:40:17.230Z,100157.73
2019-02-22T13:42:47.314Z,100154.23
2019-02-22T13:45:26.105Z,100157.92
2019-02-22T13:47:45.801Z,100154.28
2019-02-22T13:50:14.521Z,100160.47
2019-02-22T13:52:42.897Z,100168.64
2019-02-22T13:55:10.973Z,100169.93
2019-02-22T13:57:43.500Z,100164.33
2019-02-22T14:00:15.372Z,100167.41
2019-02-22T14:02:43.609Z,100172.23
2019-02-22T14:05:11.844Z,100171.61
2019-02-22T14:07:49.693Z,100170.59
2019-02-22T14:10:19.145Z,100175.00
2019-02-22T14:12:47.723Z,100168.03
2019-02-22T14:15:18.682Z,100171.82
2019-02-22T14:17:46.186Z,100177.28
2019-02-22T14:20:15.507Z,100168.49
2019-02-22T14:22:43.752Z,100166.25
2019-02-22T14:25:12.125Z,100169.30
2019-02-22T14:27:40.307Z,100177.34
2019-02-22T14:30:10.387Z,100173.56
2019-02-22T14:32:38.789Z,100178.11
2019-02-22T14:35:06.917Z,100181.69
2019-02-22T14:37:35.050Z,100179.23
2019-02-22T14:40:05.741Z,100181.45
2019-02-22T14:42:33.793Z,100186.82
2019-02-22T14:45:02.025Z,100179.67
2019-02-22T14:47:30.294Z,100177.66
2019-02-22T14:49:59.776Z,100169.91
2019-02-22T14:52:28.118Z,100175.97
2019-02-22T14:54:56.265Z,100172.63
2019-02-22T14:57:26.745Z,100174.81
2019-02-22T14:59:55.010Z,100176.47
2019-02-22T15:02:24.144Z,100166.91
2019-02-22T15:04:52.426Z,100165.41
2019-02-22T15:07:20.939Z,100173.18
2019-02-22T15:09:49.484Z,100163.08
2019-02-22T15:12:17.749Z,100171.66
2019-02-22T15:14:47.074Z,100169.98
2019-02-22T15:17:22.213Z,100167.70
2019-02-22T15:19:52.448Z,100167.26
2019-02-22T15:22:20.715Z,100174.20
2019-02-22T15:24:49.110Z,100178.33
2019-02-22T15:29:58.695Z,100181.36
2019-02-22T15:32:26.891Z,100181.83
2019-02-22T15:34:57.569Z,100175.98
2019-02-22T15:37:27.713Z,100178.08
2019-02-22T15:39:56.063Z,100176.03
2019-02-22T15:42:26.524Z,100170.20
2019-02-22T15:44:54.990Z,100178.30
2019-02-22T15:47:23.485Z,100178.56
2019-02-22T15:49:51.884Z,100175.66
2019-02-22T15:52:30.899Z,100174.19
2019-02-22T15:54:55.512Z,100176.63
2019-02-22T15:57:25.105Z,100179.37
2019-02-22T15:59:53.714Z,100183.28
2019-02-22T16:02:24.472Z,100175.06
2019-02-22T16:05:03.634Z,100180.22
2019-02-22T16:07:31.744Z,100181.98
2019-02-22T16:10:00.536Z,100192.49
2019-02-22T16:12:28.645Z,100189.45
2019-02-22T16:14:57.565Z,100197.63
2019-02-22T16:17:25.833Z,100196.81
2019-02-22T16:19:55.132Z,100196.80
2019-02-22T16:22:23.347Z,100201.84
2019-02-22T16:24:52.589Z,100199.00
2019-02-22T16:27:20.630Z,100205.52
2019-02-22T16:29:48.711Z,100205.41
2019-02-22T16:32:16.812Z,100210.92
2019-02-22T16:34:46.994Z,100207.84
2019-02-22T16:37:14.937Z,100211.06
2019-02-22T16:39:42.959Z,100210.15
2019-02-22T16:42:13.011Z,100210.16
2019-02-22T16:44:41.428Z,100213.93
2019-02-22T16:47:11.511Z,100219.02
2019-02-22T16:49:39.933Z,100212.12
2019-02-22T16:52:07.931Z,100221.73
2019-02-22T16:54:36.033Z,100216.98
2019-02-22T16:57:04.826Z,100219.02
2019-02-22T16:59:32.835Z,100226.42
2019-02-22T17:02:01.284Z,100228.03
2019-02-22T17:04:30.262Z,100226.13
2019-02-22T17:06:58.722Z,100224.70
2019-02-22T17:09:26.862Z,100229.03
2019-02-22T17:12:05.849Z,100229.88
2019-02-22T17:14:25.156Z,100228.05
2019-02-22T17:16:54.913Z,100233.34
2019-02-22T17:19:22.898Z,100235.78
2019-02-22T17:21:51.307Z,100234.58
2019-02-22T17:24:20.939Z,100231.69
2019-02-22T17:26:49.034Z,100237.74
2019-02-22T17:29:17.046Z,100239.47
2019-02-22T17:31:45.253Z,100247.28
2019-02-22T17:34:13.822Z,100248.03
2019-02-22T17:36:42.087Z,100254.77
2019-02-22T17:39:10.044Z,100253.28
2019-02-22T17:41:39.485Z,100255.41
2019-02-22T17:44:08.323Z,100253.51
2019-02-22T17:46:36.795Z,100251.97
2019-02-22T17:49:05.085Z,100252.76
2019-02-22T17:51:33.420Z,100253.14
2019-02-22T17:54:01.682Z,100262.00
2019-02-22T17:56:30.041Z,100259.36
2019-02-22T17:58:58.371Z,100260.48
2019-02-22T18:01:26.369Z,100261.20
2019-02-22T18:03:54.447Z,100260.03
2019-02-22T18:06:22.440Z,100255.41
2019-02-22T18:08:50.442Z,100260.08
2019-02-22T18:11:18.819Z,100262.20
2019-02-22T18:13:47.097Z,100263.52
2019-02-22T18:16:15.133Z,100272.29
2019-02-22T18:18:43.108Z,100276.73
2019-02-22T18:21:11.465Z,100275.36
2019-02-22T18:23:39.574Z,100272.04
2019-02-22T18:26:07.600Z,100278.34
2019-02-22T18:28:35.963Z,100284.44
2019-02-22T18:31:04.060Z,100281.80
2019-02-22T18:33:32.671Z,100283.97
2019-02-22T18:36:01.281Z,100285.81
2019-02-22T18:38:29.755Z,100282.22
2019-02-22T18:40:58.185Z,100285.19
2019-02-22T18:43:26.498Z,100280.27
2019-02-22T18:45:54.639Z,100281.59
2019-02-22T18:48:24.351Z,100285.92
2019-02-22T18:50:52.783Z,100291.46
2019-02-22T18:53:20.924Z,100287.61
2019-02-22T18:55:50.407Z,100290.80
2019-02-22T18:58:18.913Z,100296.48
2019-02-22T19:00:47.043Z,100295.41
2019-02-22T19:03:15.294Z,100293.66
2019-02-22T19:05:43.400Z,100287.98
2019-02-22T19:08:11.840Z,100286.88
2019-02-22T19:10:40.250Z,100292.13
2019-02-22T19:13:08.670Z,100284.78
2019-02-22T19:15:36.843Z,100292.59
2019-02-22T19:18:05.149Z,100290.33
2019-02-22T19:20:33.183Z,100289.92
2019-02-22T19:23:01.745Z,100288.64
2019-02-22T19:25:29.926Z,100295.38
2019-02-22T19:27:58.470Z,100297.64
2019-02-22T19:30:26.848Z,100294.39
2019-02-22T19:32:55.179Z,100298.61
2019-02-22T19:35:24.078Z,100299.02
2019-02-22T19:37:52.192Z,100295.27
2019-02-22T19:40:21.623Z,100293.84
2019-02-22T19:42:49.630Z,100301.59
2019-02-22T19:45:17.631Z,100296.78
2019-02-22T19:47:54.346Z,100300.97
2019-02-22T19:50:22.383Z,100303.59
2019-02-22T19:52:50.654Z,100303.28
2019-02-22T19:55:18.621Z,100310.73
2019-02-22T19:57:48.175Z,100315.33
2019-02-22T20:00:16.439Z,100314.77
2019-02-22T20:02:46.279Z,100318.03
2019-02-22T20:05:18.766Z,100312.77
2019-02-22T20:07:47.452Z,100317.49
2019-02-22T20:10:18.294Z,100323.66
2019-02-22T20:12:46.804Z,100323.12
2019-02-22T20:15:15.595Z,100327.48
2019-02-22T20:17:53.208Z,100329.54
2019-02-22T20:20:14.844Z,100327.41
2019-02-22T20:22:42.978Z,100327.09
2019-02-22T20:25:11.046Z,100325.31
2019-02-22T20:27:39.375Z,100318.89
2019-02-22T20:30:11.207Z,100322.55
2019-02-22T20:32:39.551Z,100327.58
2019-02-22T20:35:11.005Z,100331.17
2019-02-22T20:37:39.198Z,100325.42
2019-02-22T20:40:08.628Z,100332.08
2019-02-22T20:42:37.164Z,100335.52
2019-02-22T20:45:06.049Z,100329.80
2019-02-22T20:47:34.353Z,100332.02
2019-02-22T20:50:02.527Z,100340.23
2019-02-22T20:52:31.149Z,100345.39
2019-02-22T20:54:59.209Z,100349.64
2019-02-22T20:57:27.419Z,100349.81
2019-02-22T20:59:55.391Z,100353.48
2019-02-22T21:02:31.133Z,100353.16
2019-02-22T21:04:59.292Z,100353.95
2019-02-22T21:07:27.309Z,100360.53
2019-02-22T21:09:55.368Z,100368.87
2019-02-22T21:12:23.905Z,100371.55
2019-02-22T21:14:52.036Z,100372.75
2019-02-22T21:17:20.527Z,100376.18
2019-02-22T21:19:48.863Z,100378.06
2019-02-22T21:22:16.990Z,100374.30
2019-02-22T21:24:44.979Z,100375.39
2019-02-22T21:27:13.028Z,100377.38
2019-02-22T21:29:41.340Z,100377.77
2019-02-22T21:32:09.635Z,100391.80
2019-02-22T21:34:37.835Z,100390.32
2019-02-22T21:37:06.470Z,100387.19
2019-02-22T21:39:36.148Z,100395.62
2019-02-22T21:42:04.735Z,100389.73
2019-02-22T21:44:33.226Z,100396.57
2019-02-22T21:47:01.255Z,100394.09
2019-02-22T21:49:29.268Z,100403.77
2019-02-22T21:51:57.341Z,100399.13
2019-02-22T21:54:25.800Z,100396.98
2019-02-22T21:56:54.117Z,100394.09
2019-02-22T21:59:22.172Z,100395.88
2019-02-22T22:01:50.235Z,100398.60
2019-02-22T22:04:20.199Z,100391.47
2019-02-22T22:06:48.273Z,100395.78
2019-02-22T22:09:18.702Z,100394.69
2019-02-22T22:11:46.716Z,100388.72
2019-02-22T22:14:15.001Z,100389.89
2019-02-22T22:16:42.987Z,100391.11
2019-02-22T22:19:11.040Z,100384.89
2019-02-22T22:21:39.082Z,100386.38
2019-02-22T22:24:07.068Z,100385.26
2019-02-22T22:26:35.034Z,100384.20
2019-02-22T22:29:03.052Z,100381.00
2019-02-22T22:31:31.091Z,100379.47
2019-02-22T22:33:59.065Z,100381.56
2019-02-22T22:36:27.111Z,100388.69
2019-02-22T22:38:55.235Z,100396.47
2019-02-22T22:41:23.249Z,100400.65
2019-02-22T22:43:51.266Z,100394.98
2019-02-22T22:46:19.330Z,100392.09
2019-02-22T22:48:50.392Z,100390.22
2019-02-22T22:51:17.186Z,100393.37
2019-02-22T22:53:45.985Z,100396.27
2019-02-22T22:56:14.359Z,100399.41
2019-02-22T22:58:42.368Z,100398.01
2019-02-22T23:01:23.817Z,100403.92
2019-02-22T23:03:52.021Z,100408.12
2019-02-22T23:06:20.210Z,100405.09
2019-02-22T23:08:48.329Z,100419.23
2019-02-22T23:11:16.653Z,100421.94
2019-02-22T23:13:44.733Z,100415.52
2019-02-22T23:16:14.485Z,100413.60
2019-02-22T23:18:42.594Z,100412.63
2019-02-22T23:21:10.797Z,100411.64
2019-02-22T23:23:38.913Z,100407.88
2019-02-22T23:26:07.463Z,100412.27
2019-02-22T23:28:35.727Z,100408.51
2019-02-22T23:31:03.789Z,100407.66
2019-02-22T23:33:31.918Z,100413.95
2019-02-22T23:36:00.342Z,100405.88
2019-02-22T23:38:29.663Z,100413.63
2019-02-22T23:40:57.772Z,100409.06
2019-02-22T23:43:25.767Z,100413.39
2019-02-22T23:45:54.129Z,100420.35
2019-02-22T23:48:22.233Z,100422.97
2019-02-22T23:50:51.354Z,100424.45
2019-02-22T23:53:19.321Z,100429.05
2019-02-22T23:55:47.827Z,100434.42
2019-02-22T23:58:15.962Z,100428.88
